| time (UTC) | temp F | wind direction | speed MPH | gust MPH | rain 1hr in | rain 24hr in | rain mn in | humidity % | barometer mb |
| 20260510074522 | 55 | 296 | 0.0 | 0.0 | 0.00 | 0.00 | 0.00 | 74 | 1011.5 |
| 20260510073027 | 55 | 296 | 0.0 | 0.0 | 0.00 | 0.00 | 0.00 | 72 | 1011.5 |
| 20260510071518 | 55 | 296 | 0.0 | 0.0 | 0.00 | 0.00 | 0.00 | 71 | 1011.4 |
| 20260510070017 | 56 | 296 | 0.0 | 0.0 | 0.00 | 0.00 | 0.00 | 70 | 1011.5 |
| 20260510064536 | 56 | 296 | 0.0 | 0.0 | 0.00 | 0.00 | 0.00 | 69 | 1011.4 |
| 20260510063015 | 57 | 296 | 0.0 | 0.0 | 0.00 | 0.00 | 0.00 | 67 | 1011.3 |
| 20260510061515 | 57 | 296 | 0.0 | 0.0 | 0.00 | 0.00 | 0.00 | 66 | 1011.2 |
| 20260510060014 | 58 | 296 | 0.0 | 0.0 | 0.00 | 0.00 | 0.00 | 65 | 1011.2 |
| 20260510054515 | 58 | 296 | 0.0 | 0.0 | 0.00 | 0.00 | 0.00 | 64 | 1011.1 |
| 20260510053034 | 59 | 296 | 0.0 | 0.0 | 0.00 | 0.00 | 0.00 | 63 | 1011.0 |
| 20260510051513 | 60 | 287 | 0.0 | 0.0 | 0.00 | 0.00 | 0.00 | 62 | 1011.1 |
| 20260510050014 | 60 | 287 | 0.0 | 0.0 | 0.00 | 0.00 | 0.00 | 61 | 1011.0 |
| 20260510044513 | 61 | 287 | 0.0 | 0.0 | 0.00 | 0.00 | 0.00 | 60 | 1010.9 |
| 20260510043012 | 62 | 287 | 0.0 | 0.0 | 0.00 | 0.00 | 0.00 | 60 | 1010.6 |
| 20260510041511 | 63 | 287 | 0.0 | 0.0 | 0.00 | 0.00 | 0.00 | 58 | 1010.5 |
| 20260510040011 | 64 | 287 | 0.0 | 0.0 | 0.00 | 0.00 | 0.00 | 57 | 1010.3 |
| 20260510034511 | 65 | 228 | 0.0 | 0.0 | 0.00 | 0.00 | 0.00 | 56 | 1010.1 |
| 20260510033010 | 66 | 228 | 0.0 | 0.0 | 0.00 | 0.00 | 0.00 | 54 | 1009.8 |
| 20260510031517 | 67 | 238 | 0.0 | 1.0 | 0.00 | 0.00 | 0.00 | 53 | 1009.6 |
| 20260510030009 | 69 | 339 | 0.0 | 0.0 | 0.00 | 0.00 | 0.00 | 48 | 1009.4 |
| 20260510024509 | 70 | 195 | 0.0 | 0.0 | 0.00 | 0.00 | 0.00 | 45 | 1009.2 |
| 20260510023008 | 71 | 220 | 0.0 | 0.0 | 0.00 | 0.00 | 0.00 | 45 | 1009.1 |
| 20260510021507 | 72 | 220 | 0.0 | 0.0 | 0.00 | 0.00 | 0.00 | 44 | 1009.1 |
| 20260510020008 | 73 | 326 | 0.0 | 0.0 | 0.00 | 0.00 | 0.00 | 43 | 1008.9 |
| 20260510014507 | 73 | 221 | 0.0 | 1.0 | 0.00 | 0.00 | 0.00 | 40 | 1008.6 |
| 20260510013006 | 73 | 195 | 0.0 | 6.0 | 0.00 | 0.00 | 0.00 | 39 | 1008.6 |
| 20260510011506 | 74 | 121 | 0.0 | 8.0 | 0.00 | 0.00 | 0.00 | 38 | 1008.4 |
| 20260510010005 | 75 | 278 | 2.0 | 7.0 | 0.00 | 0.00 | 0.00 | 38 | 1008.4 |
| 20260510004505 | 75 | 269 | 0.0 | 8.0 | 0.00 | 0.00 | 0.00 | 39 | 1008.4 |
| 20260510003004 | 76 | 243 | 1.0 | 10.0 | 0.00 | 0.00 | 0.00 | 37 | 1008.5 |
| 20260510001503 | 76 | 208 | 1.0 | 8.0 | 0.00 | 0.00 | 0.00 | 40 | 1008.5 |
| 20260510000002 | 77 | 271 | 1.0 | 9.0 | 0.00 | 0.00 | 0.00 | 38 | 1008.6 |
| 20260509234600 | 77 | 214 | 1.0 | 10.0 | 0.00 | 0.00 | 0.00 | 39 | 1008.7 |
| 20260509233059 | 77 | 297 | 2.0 | 10.0 | 0.00 | 0.00 | 0.00 | 40 | 1008.9 |
| 20260509231616 | 78 | 279 | 2.0 | 9.0 | 0.00 | 0.00 | 0.00 | 42 | 1008.9 |
| 20260509230107 | 80 | 194 | 0.0 | 7.0 | 0.00 | 0.00 | 0.00 | 43 | 1008.9 |
| 20260509224556 | 82 | 234 | 1.0 | 8.0 | 0.00 | 0.00 | 0.00 | 42 | 1009.0 |
| 20260509223103 | 83 | 242 | 1.0 | 5.0 | 0.00 | 0.00 | 0.00 | 40 | 1009.3 |
| 20260509221600 | 84 | 237 | 0.0 | 6.0 | 0.00 | 0.00 | 0.00 | 40 | 1009.5 |
| 20260509220050 | 86 | 219 | 0.0 | 6.0 | 0.00 | 0.00 | 0.00 | 39 | 1009.7 |
| 20260509214600 | 89 | 196 | 0.0 | 4.0 | 0.00 | 0.00 | 0.00 | 32 | 1009.9 |
| 20260509213047 | 89 | 342 | 0.0 | 2.0 | 0.00 | 0.00 | 0.00 | 22 | 1010.0 |
| 20260509211547 | 88 | 315 | 0.0 | 4.0 | 0.00 | 0.00 | 0.00 | 24 | 1010.2 |
| 20260509210046 | 87 | 276 | 0.0 | 3.0 | 0.00 | 0.00 | 0.00 | 24 | 1010.3 |
| 20260509204537 | 86 | 133 | 0.0 | 4.0 | 0.00 | 0.00 | 0.00 | 27 | 1010.5 |
| 20260509203037 | 84 | 172 | 0.0 | 3.0 | 0.00 | 0.00 | 0.00 | 31 | 1010.6 |
| 20260509201529 | 84 | 107 | 0.0 | 1.0 | 0.00 | 0.00 | 0.00 | 35 | 1010.8 |
| 20260509200033 | 82 | 248 | 0.0 | 3.0 | 0.00 | 0.00 | 0.00 | 36 | 1011.0 |
| 20260509194527 | 81 | 305 | 0.0 | 6.0 | 0.00 | 0.00 | 0.00 | 38 | 1011.1 |
| 20260509193022 | 79 | 111 | 0.0 | 3.0 | 0.00 | 0.00 | 0.00 | 41 | 1011.3 |
| 20260509191513 | 78 | 86 | 0.0 | 5.0 | 0.00 | 0.00 | 0.00 | 42 | 1011.6 |
| 20260509190010 | 77 | 109 | 0.0 | 3.0 | 0.00 | 0.00 | 0.00 | 45 | 1011.8 |
| 20260509184507 | 75 | 169 | 0.0 | 4.0 | 0.00 | 0.00 | 0.00 | 48 | 1012.0 |
| 20260509183109 | 74 | 221 | 0.0 | 4.0 | 0.00 | 0.00 | 0.00 | 49 | 1012.1 |
| 20260509181557 | 72 | 53 | 0.0 | 3.0 | 0.00 | 0.00 | 0.00 | 53 | 1012.3 |
| 20260509180051 | 70 | 120 | 0.0 | 2.0 | 0.00 | 0.00 | 0.00 | 58 | 1012.5 |
| 20260509174551 | 68 | 111 | 0.0 | 3.0 | 0.00 | 0.00 | 0.00 | 63 | 1012.7 |
| 20260509173045 | 65 | 83 | 0.0 | 2.0 | 0.00 | 0.00 | 0.00 | 67 | 1012.8 |
| 20260509171543 | 63 | 89 | 0.0 | 3.0 | 0.00 | 0.00 | 0.00 | 70 | 1012.9 |
| 20260509170034 | 61 | 128 | 0.0 | 1.0 | 0.00 | 0.00 | 0.00 | 79 | 1013.1 |
| 20260509164530 | 58 | 192 | 0.0 | 0.0 | 0.00 | 0.00 | 0.00 | 85 | 1013.1 |
| 20260509163036 | 56 | 288 | 0.0 | 5.0 | 0.00 | 0.00 | 0.00 | 89 | 1013.2 |
| 20260509161528 | 55 | 227 | 0.0 | 2.0 | 0.00 | 0.00 | 0.00 | 91 | 1013.3 |
| 20260509160020 | 53 | 78 | 0.0 | 0.0 | 0.00 | 0.00 | 0.00 | 92 | 1013.5 |
| 20260509154518 | 52 | 139 | 0.0 | 0.0 | 0.00 | 0.00 | 0.00 | 92 | 1013.5 |
| 20260509153031 | 51 | 36 | 0.0 | 0.0 | 0.00 | 0.00 | 0.00 | 92 | 1013.6 |
| 20260509151513 | 51 | 15 | 0.0 | 0.0 | 0.00 | 0.00 | 0.00 | 92 | 1013.5 |
| 20260509150021 | 51 | 84 | 0.0 | 0.0 | 0.00 | 0.00 | 0.00 | 92 | 1013.5 |
| 20260509144508 | 51 | 79 | 0.0 | 0.0 | 0.00 | 0.00 | 0.00 | 92 | 1013.5 |
| 20260509143007 | 50 | 140 | 0.0 | 0.0 | 0.00 | 0.00 | 0.00 | 92 | 1013.4 |
| 20260509141504 | 50 | 55 | 0.0 | 0.0 | 0.00 | 0.00 | 0.00 | 91 | 1013.5 |
| 20260509140001 | 49 | 84 | 0.0 | 0.0 | 0.00 | 0.00 | 0.00 | 91 | 1013.3 |
| 20260509134559 | 48 | 51 | 0.0 | 0.0 | 0.00 | 0.00 | 0.00 | 90 | 1013.3 |
| 20260509133056 | 47 | 51 | 0.0 | 0.0 | 0.00 | 0.00 | 0.00 | 90 | 1013.2 |
| 20260509131557 | 47 | 40 | 0.0 | 0.0 | 0.00 | 0.00 | 0.00 | 89 | 1013.1 |
| 20260509130056 | 46 | 40 | 0.0 | 0.0 | 0.00 | 0.00 | 0.00 | 88 | 1012.9 |
| 20260509124554 | 46 | 40 | 0.0 | 0.0 | 0.00 | 0.00 | 0.00 | 88 | 1012.9 |
| 20260509123114 | 46 | 40 | 0.0 | 0.0 | 0.00 | 0.00 | 0.00 | 88 | 1012.8 |
| 20260509121557 | 46 | 40 | 0.0 | 0.0 | 0.00 | 0.00 | 0.00 | 87 | 1012.9 |
| 20260509120050 | 46 | 40 | 0.0 | 0.0 | 0.00 | 0.00 | 0.00 | 87 | 1013.0 |
| 20260509114548 | 47 | 40 | 0.0 | 0.0 | 0.00 | 0.00 | 0.00 | 86 | 1013.0 |
| 20260509113047 | 47 | 40 | 0.0 | 0.0 | 0.00 | 0.00 | 0.00 | 86 | 1013.1 |
| 20260509111548 | 47 | 40 | 0.0 | 0.0 | 0.00 | 0.00 | 0.00 | 86 | 1013.1 |
| 20260509110045 | 48 | 40 | 0.0 | 0.0 | 0.00 | 0.00 | 0.00 | 85 | 1013.2 |
| 20260509104543 | 48 | 40 | 0.0 | 0.0 | 0.00 | 0.00 | 0.00 | 85 | 1013.2 |
| 20260509103047 | 48 | 40 | 0.0 | 0.0 | 0.00 | 0.00 | 0.00 | 85 | 1013.2 |
| 20260509101539 | 49 | 40 | 0.0 | 0.0 | 0.00 | 0.00 | 0.00 | 84 | 1013.2 |
| 20260509100037 | 49 | 40 | 0.0 | 0.0 | 0.00 | 0.00 | 0.00 | 84 | 1013.1 |
| 20260509094536 | 50 | 40 | 0.0 | 0.0 | 0.00 | 0.00 | 0.00 | 83 | 1013.0 |
| 20260509093040 | 50 | 40 | 0.0 | 0.0 | 0.00 | 0.00 | 0.00 | 83 | 1013.0 |
| 20260509091532 | 50 | 40 | 0.0 | 0.0 | 0.00 | 0.00 | 0.00 | 82 | 1013.1 |
| 20260509090031 | 51 | 40 | 0.0 | 0.0 | 0.00 | 0.00 | 0.00 | 81 | 1013.0 |
| 20260509084532 | 51 | 40 | 0.0 | 0.0 | 0.00 | 0.00 | 0.00 | 81 | 1013.0 |
| 20260509083031 | 52 | 321 | 0.0 | 0.0 | 0.00 | 0.00 | 0.00 | 80 | 1013.2 |
| 20260509081525 | 52 | 321 | 0.0 | 0.0 | 0.00 | 0.00 | 0.00 | 80 | 1013.1 |
| 20260509080023 | 52 | 321 | 0.0 | 0.0 | 0.00 | 0.00 | 0.00 | 78 | 1013.2 |